SUMZM MDPC-TNCM
Flight info
| Callsign | SUMZM |
|---|---|
| Flight time | 1h 20m |
| Altitude | 25000 |
| Route | KATOK2T KATOK DCT CORAF DCT TOURO DCT JUICE |
| Aircraft | PC12/L-SDFGRWY/S |
Departure
| Time | 2026-05-07 17:47 |
|---|---|
| Airport | Punta Cana International Airport (MDPC) |
Arrival
| Time | 2026-05-07 19:07 |
|---|---|
| Airport | Princess Juliana International Airport (TNCM) |
| Time | Latitude | Longitude | Altitude | Speed | Heading |
|---|---|---|---|---|---|
| 2026-05-07 16:59 | 18.56413 | -68.35791 | 47 ft | 0 kts | 176° |
| 2026-05-07 17:41 | 18.56397 | -68.35772 | 47 ft | 7 kts | 81° |
| 2026-05-07 17:42 | 18.56436 | -68.35770 | 47 ft | 9 kts | 330° |
| 2026-05-07 17:42 | 18.56502 | -68.35788 | 47 ft | 11 kts | 309° |
| 2026-05-07 17:42 | 18.56507 | -68.35876 | 47 ft | 13 kts | 266° |
| 2026-05-07 17:42 | 18.56498 | -68.35983 | 47 ft | 17 kts | 263° |
| 2026-05-07 17:43 | 18.56486 | -68.36112 | 47 ft | 18 kts | 265° |
| 2026-05-07 17:43 | 18.56474 | -68.36252 | 47 ft | 20 kts | 267° |
| 2026-05-07 17:43 | 18.56479 | -68.36384 | 47 ft | 17 kts | 327° |
| 2026-05-07 17:43 | 18.56548 | -68.36464 | 47 ft | 17 kts | 271° |
| 2026-05-07 17:44 | 18.56538 | -68.36591 | 47 ft | 16 kts | 265° |
| 2026-05-07 17:44 | 18.56526 | -68.36708 | 47 ft | 14 kts | 265° |
| 2026-05-07 17:44 | 18.56586 | -68.36755 | 47 ft | 8 kts | 1° |
| 2026-05-07 17:44 | 18.56602 | -68.36755 | 47 ft | 0 kts | 1° |
| 2026-05-07 17:45 | 18.56628 | -68.36754 | 48 ft | 10 kts | 0° |
| 2026-05-07 17:45 | 18.56702 | -68.36726 | 49 ft | 9 kts | 85° |
| 2026-05-07 17:46 | 18.56703 | -68.36719 | 49 ft | 1 kts | 85° |
| 2026-05-07 17:46 | 18.56725 | -68.36479 | 49 ft | 63 kts | 85° |
| 2026-05-07 17:46 | 18.56787 | -68.35904 | 200 ft | 85 kts | 86° |
| 2026-05-07 17:46 | 18.56861 | -68.35265 | 522 ft | 91 kts | 85° |
| 2026-05-07 17:47 | 18.56955 | -68.34560 | 861 ft | 102 kts | 88° |
| 2026-05-07 17:47 | 18.56989 | -68.33792 | 1152 ft | 111 kts | 88° |
| 2026-05-07 17:47 | 18.57044 | -68.32917 | 1488 ft | 130 kts | 88° |
| 2026-05-07 17:47 | 18.57115 | -68.31913 | 1824 ft | 147 kts | 89° |
| 2026-05-07 17:48 | 18.57202 | -68.30788 | 2149 ft | 161 kts | 88° |
| 2026-05-07 17:48 | 18.57304 | -68.29560 | 2466 ft | 173 kts | 88° |
| 2026-05-07 17:48 | 18.57412 | -68.28266 | 2788 ft | 181 kts | 87° |
| 2026-05-07 17:48 | 18.57526 | -68.26923 | 3108 ft | 187 kts | 87° |
| 2026-05-07 17:49 | 18.57642 | -68.25542 | 3422 ft | 191 kts | 87° |
| 2026-05-07 17:49 | 18.57761 | -68.24125 | 3739 ft | 196 kts | 87° |
| 2026-05-07 17:49 | 18.57892 | -68.22682 | 4044 ft | 198 kts | 82° |
| 2026-05-07 17:49 | 18.58539 | -68.21417 | 4359 ft | 203 kts | 46° |
| 2026-05-07 17:50 | 18.59678 | -68.20494 | 4688 ft | 205 kts | 37° |
| 2026-05-07 17:50 | 18.60852 | -68.19629 | 5002 ft | 207 kts | 38° |
| 2026-05-07 17:50 | 18.61992 | -68.18692 | 5308 ft | 208 kts | 41° |
| 2026-05-07 17:50 | 18.63086 | -68.17712 | 5618 ft | 209 kts | 42° |
| 2026-05-07 17:51 | 18.64196 | -68.16714 | 5932 ft | 211 kts | 41° |
| 2026-05-07 17:51 | 18.65323 | -68.15715 | 6249 ft | 212 kts | 41° |
| 2026-05-07 17:51 | 18.66456 | -68.14714 | 6562 ft | 213 kts | 41° |
| 2026-05-07 17:51 | 18.67588 | -68.13714 | 6866 ft | 213 kts | 41° |
| 2026-05-07 17:52 | 18.68727 | -68.12706 | 7165 ft | 213 kts | 41° |
| 2026-05-07 17:52 | 18.69865 | -68.11700 | 7472 ft | 213 kts | 41° |
| 2026-05-07 17:52 | 18.71002 | -68.10694 | 7778 ft | 213 kts | 41° |
| 2026-05-07 17:52 | 18.72132 | -68.09693 | 8088 ft | 213 kts | 41° |
| 2026-05-07 17:53 | 18.73268 | -68.08688 | 8403 ft | 213 kts | 41° |
| 2026-05-07 17:53 | 18.74400 | -68.07686 | 8728 ft | 212 kts | 41° |
| 2026-05-07 17:53 | 18.75539 | -68.06678 | 9041 ft | 213 kts | 41° |
| 2026-05-07 17:53 | 18.76673 | -68.05674 | 9362 ft | 214 kts | 41° |
| 2026-05-07 17:54 | 18.77813 | -68.04665 | 9687 ft | 214 kts | 41° |
| 2026-05-07 17:54 | 18.78943 | -68.03664 | 10004 ft | 214 kts | 41° |
| 2026-05-07 17:54 | 18.80091 | -68.02646 | 10308 ft | 214 kts | 40° |
| 2026-05-07 17:54 | 18.81232 | -68.01636 | 10611 ft | 214 kts | 40° |
| 2026-05-07 17:55 | 18.82216 | -68.00498 | 10906 ft | 213 kts | 58° |
| 2026-05-07 17:55 | 18.82767 | -67.99045 | 11207 ft | 215 kts | 78° |
| 2026-05-07 17:55 | 18.82809 | -67.97476 | 11520 ft | 215 kts | 96° |
| 2026-05-07 17:55 | 18.82631 | -67.95906 | 11836 ft | 216 kts | 96° |
| 2026-05-07 17:56 | 18.82454 | -67.94323 | 12148 ft | 217 kts | 96° |
| 2026-05-07 17:56 | 18.82278 | -67.92730 | 12467 ft | 218 kts | 96° |
| 2026-05-07 17:56 | 18.82101 | -67.91133 | 12790 ft | 219 kts | 96° |
| 2026-05-07 17:56 | 18.81923 | -67.89527 | 13112 ft | 220 kts | 96° |
| 2026-05-07 17:57 | 18.81745 | -67.87914 | 13443 ft | 221 kts | 96° |
| 2026-05-07 17:57 | 18.81626 | -67.86844 | 13660 ft | 221 kts | 96° |
| 2026-05-07 17:57 | 18.81387 | -67.84683 | 14076 ft | 222 kts | 96° |
| 2026-05-07 17:57 | 18.81210 | -67.83082 | 14369 ft | 223 kts | 96° |
| 2026-05-07 17:58 | 18.81029 | -67.81456 | 14671 ft | 223 kts | 96° |
| 2026-05-07 17:58 | 18.80856 | -67.79899 | 14961 ft | 223 kts | 96° |
| 2026-05-07 17:58 | 18.80676 | -67.78274 | 15260 ft | 223 kts | 96° |
| 2026-05-07 17:58 | 18.80495 | -67.76643 | 15574 ft | 223 kts | 96° |
| 2026-05-07 17:59 | 18.80314 | -67.75018 | 15886 ft | 223 kts | 95° |
| 2026-05-07 17:59 | 18.80133 | -67.73395 | 16199 ft | 223 kts | 95° |
| 2026-05-07 17:59 | 18.79951 | -67.71763 | 16517 ft | 223 kts | 95° |
| 2026-05-07 17:59 | 18.79770 | -67.70140 | 16839 ft | 223 kts | 95° |
| 2026-05-07 18:00 | 18.79588 | -67.68509 | 17164 ft | 223 kts | 95° |
| 2026-05-07 18:00 | 18.79374 | -67.66896 | 17483 ft | 222 kts | 104° |
| 2026-05-07 18:00 | 18.78678 | -67.65438 | 17820 ft | 223 kts | 121° |
| 2026-05-07 18:00 | 18.77810 | -67.64081 | 18161 ft | 224 kts | 123° |
| 2026-05-07 18:01 | 18.77057 | -67.62689 | 18463 ft | 221 kts | 104° |
| 2026-05-07 18:01 | 18.76815 | -67.61109 | 18764 ft | 216 kts | 93° |
| 2026-05-07 18:01 | 18.76682 | -67.59534 | 19058 ft | 213 kts | 93° |
| 2026-05-07 18:01 | 18.76485 | -67.57985 | 19355 ft | 212 kts | 96° |
| 2026-05-07 18:02 | 18.75966 | -67.54933 | 19953 ft | 211 kts | 96° |
| 2026-05-07 18:02 | 18.75717 | -67.53411 | 20259 ft | 210 kts | 96° |
| 2026-05-07 18:02 | 18.75470 | -67.51891 | 20563 ft | 210 kts | 96° |
| 2026-05-07 18:03 | 18.75223 | -67.50380 | 20875 ft | 209 kts | 96° |
| 2026-05-07 18:03 | 18.74978 | -67.48883 | 21186 ft | 209 kts | 95° |
| 2026-05-07 18:03 | 18.74732 | -67.47382 | 21502 ft | 208 kts | 95° |
| 2026-05-07 18:03 | 18.74486 | -67.45877 | 21828 ft | 207 kts | 95° |
| 2026-05-07 18:04 | 18.74241 | -67.44381 | 22150 ft | 206 kts | 94° |
| 2026-05-07 18:04 | 18.73997 | -67.42896 | 22477 ft | 206 kts | 94° |
| 2026-05-07 18:04 | 18.73753 | -67.41411 | 22809 ft | 205 kts | 94° |
| 2026-05-07 18:04 | 18.73511 | -67.39933 | 23139 ft | 204 kts | 94° |
| 2026-05-07 18:05 | 18.73269 | -67.38461 | 23481 ft | 203 kts | 93° |
| 2026-05-07 18:05 | 18.73027 | -67.36990 | 23758 ft | 204 kts | 93° |
| 2026-05-07 18:05 | 18.72785 | -67.35516 | 24057 ft | 202 kts | 93° |
| 2026-05-07 18:05 | 18.72544 | -67.34048 | 24314 ft | 204 kts | 93° |
| 2026-05-07 18:06 | 18.72301 | -67.32563 | 24537 ft | 207 kts | 93° |
| 2026-05-07 18:06 | 18.72052 | -67.31052 | 24762 ft | 210 kts | 93° |
| 2026-05-07 18:06 | 18.71803 | -67.29546 | 24986 ft | 212 kts | 93° |
| 2026-05-07 18:06 | 18.71547 | -67.27980 | 25057 ft | 223 kts | 93° |
| 2026-05-07 18:07 | 18.71277 | -67.26336 | 25064 ft | 233 kts | 94° |
| 2026-05-07 18:07 | 18.70992 | -67.24617 | 25069 ft | 241 kts | 94° |
| 2026-05-07 18:07 | 18.70697 | -67.22844 | 25073 ft | 248 kts | 94° |
| 2026-05-07 18:07 | 18.70398 | -67.21040 | 25075 ft | 252 kts | 94° |
| 2026-05-07 18:08 | 18.70094 | -67.19202 | 25072 ft | 256 kts | 94° |
| 2026-05-07 18:08 | 18.69787 | -67.17347 | 25076 ft | 258 kts | 94° |
| 2026-05-07 18:08 | 18.69476 | -67.15473 | 25075 ft | 260 kts | 94° |
| 2026-05-07 18:08 | 18.69164 | -67.13586 | 25079 ft | 261 kts | 94° |
| 2026-05-07 18:09 | 18.68851 | -67.11697 | 25078 ft | 262 kts | 94° |
| 2026-05-07 18:09 | 18.68537 | -67.09805 | 25078 ft | 262 kts | 94° |
| 2026-05-07 18:09 | 18.68222 | -67.07909 | 25074 ft | 263 kts | 94° |
| 2026-05-07 18:09 | 18.67911 | -67.06034 | 25075 ft | 263 kts | 94° |
| 2026-05-07 18:10 | 18.67595 | -67.04131 | 25076 ft | 263 kts | 94° |
| 2026-05-07 18:10 | 18.67278 | -67.02227 | 25076 ft | 263 kts | 94° |
| 2026-05-07 18:10 | 18.66962 | -67.00322 | 25076 ft | 264 kts | 94° |
| 2026-05-07 18:10 | 18.66644 | -66.98412 | 25074 ft | 264 kts | 94° |
| 2026-05-07 18:11 | 18.66326 | -66.96502 | 25074 ft | 264 kts | 95° |
| 2026-05-07 18:11 | 18.66115 | -66.95238 | 25073 ft | 264 kts | 95° |
| 2026-05-07 18:11 | 18.65691 | -66.92692 | 25074 ft | 264 kts | 95° |
| 2026-05-07 18:11 | 18.65376 | -66.90806 | 25071 ft | 264 kts | 95° |
| 2026-05-07 18:12 | 18.65053 | -66.88872 | 25070 ft | 264 kts | 95° |
| 2026-05-07 18:12 | 18.64736 | -66.86972 | 25070 ft | 264 kts | 95° |
| 2026-05-07 18:12 | 18.64418 | -66.85070 | 25071 ft | 264 kts | 95° |
| 2026-05-07 18:12 | 18.64101 | -66.83180 | 25071 ft | 264 kts | 95° |
| 2026-05-07 18:13 | 18.63783 | -66.81277 | 25071 ft | 264 kts | 95° |
| 2026-05-07 18:13 | 18.63464 | -66.79375 | 25069 ft | 264 kts | 95° |
| 2026-05-07 18:13 | 18.63143 | -66.77460 | 25069 ft | 264 kts | 95° |
| 2026-05-07 18:13 | 18.62824 | -66.75554 | 25070 ft | 264 kts | 95° |
| 2026-05-07 18:14 | 18.62504 | -66.73648 | 25066 ft | 264 kts | 95° |
| 2026-05-07 18:14 | 18.62184 | -66.71745 | 25067 ft | 264 kts | 95° |
| 2026-05-07 18:14 | 18.61864 | -66.69839 | 25067 ft | 264 kts | 95° |
| 2026-05-07 18:14 | 18.61545 | -66.67939 | 25068 ft | 264 kts | 95° |
| 2026-05-07 18:15 | 18.61228 | -66.66056 | 25066 ft | 264 kts | 95° |
| 2026-05-07 18:15 | 18.60907 | -66.64150 | 25067 ft | 264 kts | 95° |
| 2026-05-07 18:15 | 18.60587 | -66.62250 | 25068 ft | 264 kts | 95° |
| 2026-05-07 18:15 | 18.60265 | -66.60337 | 25069 ft | 264 kts | 95° |
| 2026-05-07 18:16 | 18.59942 | -66.58422 | 25068 ft | 264 kts | 95° |
| 2026-05-07 18:16 | 18.59619 | -66.56511 | 25069 ft | 264 kts | 95° |
| 2026-05-07 18:16 | 18.59302 | -66.54634 | 25068 ft | 264 kts | 95° |
| 2026-05-07 18:16 | 18.58979 | -66.52723 | 25064 ft | 264 kts | 95° |
| 2026-05-07 18:17 | 18.58657 | -66.50816 | 25065 ft | 264 kts | 95° |
| 2026-05-07 18:17 | 18.58334 | -66.48911 | 25067 ft | 264 kts | 95° |
| 2026-05-07 18:17 | 18.58011 | -66.47002 | 25067 ft | 264 kts | 95° |
| 2026-05-07 18:17 | 18.57689 | -66.45099 | 25066 ft | 264 kts | 95° |
| 2026-05-07 18:18 | 18.57365 | -66.43190 | 25064 ft | 264 kts | 95° |
| 2026-05-07 18:18 | 18.57041 | -66.41280 | 25065 ft | 264 kts | 95° |
| 2026-05-07 18:18 | 18.56717 | -66.39370 | 25068 ft | 264 kts | 95° |
| 2026-05-07 18:18 | 18.56397 | -66.37486 | 25071 ft | 264 kts | 95° |
| 2026-05-07 18:19 | 18.56073 | -66.35580 | 25069 ft | 264 kts | 95° |
| 2026-05-07 18:19 | 18.55749 | -66.33671 | 25069 ft | 264 kts | 95° |
| 2026-05-07 18:19 | 18.55420 | -66.31742 | 25071 ft | 264 kts | 95° |
| 2026-05-07 18:19 | 18.55101 | -66.29866 | 25071 ft | 264 kts | 95° |
| 2026-05-07 18:20 | 18.54776 | -66.27960 | 25070 ft | 264 kts | 95° |
| 2026-05-07 18:20 | 18.54451 | -66.26051 | 25071 ft | 264 kts | 95° |
| 2026-05-07 18:20 | 18.54125 | -66.24140 | 25071 ft | 264 kts | 95° |
| 2026-05-07 18:20 | 18.53800 | -66.22240 | 25073 ft | 264 kts | 95° |
| 2026-05-07 18:21 | 18.53473 | -66.20325 | 25071 ft | 264 kts | 95° |
| 2026-05-07 18:21 | 18.53148 | -66.18421 | 25071 ft | 264 kts | 95° |
| 2026-05-07 18:21 | 18.52822 | -66.16514 | 25073 ft | 265 kts | 95° |
| 2026-05-07 18:21 | 18.52494 | -66.14600 | 25071 ft | 265 kts | 95° |
| 2026-05-07 18:22 | 18.52278 | -66.13337 | 25069 ft | 265 kts | 95° |
| 2026-05-07 18:22 | 18.52058 | -66.12051 | 25070 ft | 265 kts | 95° |
| 2026-05-07 18:22 | 18.51624 | -66.09518 | 25070 ft | 265 kts | 95° |
| 2026-05-07 18:22 | 18.51296 | -66.07610 | 25072 ft | 265 kts | 95° |
| 2026-05-07 18:23 | 18.50968 | -66.05695 | 25074 ft | 265 kts | 95° |
| 2026-05-07 18:23 | 18.50639 | -66.03783 | 25073 ft | 265 kts | 95° |
| 2026-05-07 18:23 | 18.50315 | -66.01895 | 25073 ft | 265 kts | 95° |
| 2026-05-07 18:23 | 18.49982 | -65.99959 | 25074 ft | 265 kts | 95° |
| 2026-05-07 18:24 | 18.49654 | -65.98050 | 25072 ft | 265 kts | 95° |
| 2026-05-07 18:24 | 18.49329 | -65.96162 | 25072 ft | 265 kts | 95° |
| 2026-05-07 18:24 | 18.48999 | -65.94249 | 25073 ft | 265 kts | 95° |
| 2026-05-07 18:24 | 18.48667 | -65.92321 | 25072 ft | 265 kts | 95° |
| 2026-05-07 18:25 | 18.48341 | -65.90430 | 25075 ft | 265 kts | 95° |
| 2026-05-07 18:25 | 18.48011 | -65.88518 | 25073 ft | 265 kts | 95° |
| 2026-05-07 18:25 | 18.47681 | -65.86607 | 25073 ft | 265 kts | 95° |
| 2026-05-07 18:25 | 18.47351 | -65.84700 | 25073 ft | 265 kts | 95° |
| 2026-05-07 18:26 | 18.47022 | -65.82794 | 25074 ft | 265 kts | 95° |
| 2026-05-07 18:26 | 18.46691 | -65.80884 | 25073 ft | 265 kts | 95° |
| 2026-05-07 18:26 | 18.46360 | -65.78973 | 25074 ft | 265 kts | 95° |
| 2026-05-07 18:26 | 18.46033 | -65.77086 | 25076 ft | 265 kts | 95° |
| 2026-05-07 18:27 | 18.45702 | -65.75175 | 25075 ft | 265 kts | 95° |
| 2026-05-07 18:27 | 18.45370 | -65.73261 | 25075 ft | 265 kts | 95° |
| 2026-05-07 18:27 | 18.45038 | -65.71349 | 25074 ft | 265 kts | 95° |
| 2026-05-07 18:27 | 18.44708 | -65.69448 | 25077 ft | 265 kts | 95° |
| 2026-05-07 18:28 | 18.44375 | -65.67528 | 25077 ft | 265 kts | 95° |
| 2026-05-07 18:28 | 18.44043 | -65.65620 | 25080 ft | 265 kts | 95° |
| 2026-05-07 18:28 | 18.43715 | -65.63733 | 25079 ft | 265 kts | 95° |
| 2026-05-07 18:28 | 18.43382 | -65.61823 | 25080 ft | 265 kts | 95° |
| 2026-05-07 18:29 | 18.43050 | -65.59917 | 25078 ft | 265 kts | 95° |
| 2026-05-07 18:29 | 18.42717 | -65.58005 | 25078 ft | 265 kts | 95° |
| 2026-05-07 18:29 | 18.42385 | -65.56100 | 25078 ft | 265 kts | 95° |
| 2026-05-07 18:29 | 18.42051 | -65.54185 | 25081 ft | 265 kts | 95° |
| 2026-05-07 18:30 | 18.41718 | -65.52278 | 25081 ft | 265 kts | 95° |
| 2026-05-07 18:30 | 18.41383 | -65.50364 | 25082 ft | 265 kts | 95° |
| 2026-05-07 18:30 | 18.41050 | -65.48455 | 25080 ft | 265 kts | 95° |
| 2026-05-07 18:30 | 18.40716 | -65.46547 | 25081 ft | 265 kts | 95° |
| 2026-05-07 18:31 | 18.40381 | -65.44637 | 25080 ft | 265 kts | 95° |
| 2026-05-07 18:31 | 18.40045 | -65.42718 | 25082 ft | 265 kts | 95° |
| 2026-05-07 18:31 | 18.39711 | -65.40807 | 25078 ft | 265 kts | 95° |
| 2026-05-07 18:31 | 18.39375 | -65.38892 | 25081 ft | 266 kts | 95° |
| 2026-05-07 18:32 | 18.39043 | -65.37004 | 25079 ft | 266 kts | 95° |
| 2026-05-07 18:32 | 18.38704 | -65.35069 | 25077 ft | 266 kts | 95° |
| 2026-05-07 18:32 | 18.38372 | -65.33180 | 25076 ft | 266 kts | 95° |
| 2026-05-07 18:32 | 18.38035 | -65.31264 | 25074 ft | 266 kts | 95° |
| 2026-05-07 18:33 | 18.37695 | -65.29333 | 25075 ft | 266 kts | 95° |
| 2026-05-07 18:33 | 18.37363 | -65.27446 | 25075 ft | 266 kts | 95° |
| 2026-05-07 18:33 | 18.37022 | -65.25507 | 25073 ft | 266 kts | 95° |
| 2026-05-07 18:33 | 18.36687 | -65.23609 | 25074 ft | 266 kts | 95° |
| 2026-05-07 18:34 | 18.36349 | -65.21692 | 25073 ft | 266 kts | 95° |
| 2026-05-07 18:34 | 18.36011 | -65.19774 | 25071 ft | 266 kts | 96° |
| 2026-05-07 18:34 | 18.35676 | -65.17876 | 25075 ft | 266 kts | 96° |
| 2026-05-07 18:34 | 18.35334 | -65.15939 | 25073 ft | 266 kts | 96° |
| 2026-05-07 18:35 | 18.34998 | -65.14040 | 25072 ft | 266 kts | 96° |
| 2026-05-07 18:35 | 18.34659 | -65.12124 | 25073 ft | 266 kts | 96° |
| 2026-05-07 18:35 | 18.34321 | -65.10210 | 25072 ft | 266 kts | 96° |
| 2026-05-07 18:35 | 18.33979 | -65.08283 | 25074 ft | 267 kts | 96° |
| 2026-05-07 18:36 | 18.33640 | -65.06369 | 25072 ft | 267 kts | 96° |
| 2026-05-07 18:36 | 18.33300 | -65.04449 | 25069 ft | 267 kts | 96° |
| 2026-05-07 18:36 | 18.32958 | -65.02519 | 25072 ft | 267 kts | 96° |
| 2026-05-07 18:36 | 18.32616 | -65.00595 | 25071 ft | 267 kts | 96° |
| 2026-05-07 18:37 | 18.32276 | -64.98678 | 25072 ft | 267 kts | 96° |
| 2026-05-07 18:37 | 18.31935 | -64.96759 | 25073 ft | 267 kts | 96° |
| 2026-05-07 18:37 | 18.31594 | -64.94844 | 25071 ft | 267 kts | 96° |
| 2026-05-07 18:37 | 18.31251 | -64.92918 | 25067 ft | 267 kts | 96° |
| 2026-05-07 18:38 | 18.30913 | -64.91018 | 25070 ft | 267 kts | 96° |
| 2026-05-07 18:38 | 18.30567 | -64.89076 | 25070 ft | 267 kts | 96° |
| 2026-05-07 18:38 | 18.30224 | -64.87150 | 25068 ft | 267 kts | 96° |
| 2026-05-07 18:38 | 18.29886 | -64.85255 | 25071 ft | 267 kts | 96° |
| 2026-05-07 18:39 | 18.29541 | -64.83323 | 25070 ft | 267 kts | 96° |
| 2026-05-07 18:39 | 18.29199 | -64.81406 | 25071 ft | 267 kts | 96° |
| 2026-05-07 18:39 | 18.28855 | -64.79480 | 25069 ft | 267 kts | 96° |
| 2026-05-07 18:39 | 18.28511 | -64.77556 | 25071 ft | 267 kts | 96° |
| 2026-05-07 18:40 | 18.28167 | -64.75635 | 25070 ft | 267 kts | 96° |
| 2026-05-07 18:40 | 18.27822 | -64.73706 | 25067 ft | 268 kts | 96° |
| 2026-05-07 18:40 | 18.27477 | -64.71779 | 25079 ft | 268 kts | 96° |
| 2026-05-07 18:40 | 18.27132 | -64.69855 | 25080 ft | 268 kts | 96° |
| 2026-05-07 18:41 | 18.26788 | -64.67937 | 25080 ft | 268 kts | 96° |
| 2026-05-07 18:41 | 18.26442 | -64.66010 | 25078 ft | 268 kts | 96° |
| 2026-05-07 18:41 | 18.26097 | -64.64086 | 25079 ft | 268 kts | 96° |
| 2026-05-07 18:41 | 18.25750 | -64.62153 | 25081 ft | 268 kts | 96° |
| 2026-05-07 18:42 | 18.25403 | -64.60224 | 25079 ft | 268 kts | 96° |
| 2026-05-07 18:42 | 18.25056 | -64.58297 | 25079 ft | 268 kts | 96° |
| 2026-05-07 18:42 | 18.24709 | -64.56367 | 25080 ft | 268 kts | 96° |
| 2026-05-07 18:42 | 18.24364 | -64.54458 | 25079 ft | 268 kts | 96° |
| 2026-05-07 18:43 | 18.23851 | -64.52562 | 25076 ft | 271 kts | 105° |
| 2026-05-07 18:43 | 18.23161 | -64.50714 | 25077 ft | 272 kts | 108° |
| 2026-05-07 18:43 | 18.22462 | -64.48864 | 25078 ft | 272 kts | 106° |
| 2026-05-07 18:43 | 18.21809 | -64.46996 | 25076 ft | 271 kts | 105° |
| 2026-05-07 18:44 | 18.21169 | -64.45129 | 25077 ft | 272 kts | 105° |
| 2026-05-07 18:44 | 18.20516 | -64.43266 | 25045 ft | 267 kts | 106° |
| 2026-05-07 18:44 | 18.19871 | -64.41457 | 24652 ft | 261 kts | 106° |
| 2026-05-07 18:44 | 18.19245 | -64.39684 | 24270 ft | 256 kts | 106° |
| 2026-05-07 18:45 | 18.18636 | -64.37948 | 23890 ft | 251 kts | 106° |
| 2026-05-07 18:45 | 18.18044 | -64.36259 | 23497 ft | 247 kts | 106° |
| 2026-05-07 18:45 | 18.17444 | -64.34554 | 23048 ft | 244 kts | 106° |
| 2026-05-07 18:45 | 18.16861 | -64.32916 | 22611 ft | 241 kts | 106° |
| 2026-05-07 18:46 | 18.16296 | -64.31277 | 22178 ft | 237 kts | 106° |
| 2026-05-07 18:46 | 18.15732 | -64.29661 | 21751 ft | 233 kts | 106° |
| 2026-05-07 18:46 | 18.15173 | -64.28082 | 21358 ft | 227 kts | 107° |
| 2026-05-07 18:46 | 18.14631 | -64.26554 | 21036 ft | 218 kts | 106° |
| 2026-05-07 18:47 | 18.14114 | -64.25085 | 20717 ft | 212 kts | 106° |
| 2026-05-07 18:47 | 18.13608 | -64.23648 | 20406 ft | 206 kts | 106° |
| 2026-05-07 18:47 | 18.13119 | -64.22261 | 20101 ft | 202 kts | 106° |
| 2026-05-07 18:47 | 18.12624 | -64.20851 | 19803 ft | 209 kts | 106° |
| 2026-05-07 18:48 | 18.12117 | -64.19409 | 19506 ft | 213 kts | 107° |
| 2026-05-07 18:48 | 18.11594 | -64.17927 | 19208 ft | 217 kts | 107° |
| 2026-05-07 18:48 | 18.11065 | -64.16436 | 18910 ft | 215 kts | 107° |
| 2026-05-07 18:48 | 18.10551 | -64.14992 | 18620 ft | 208 kts | 107° |
| 2026-05-07 18:49 | 18.10053 | -64.13582 | 18318 ft | 203 kts | 107° |
| 2026-05-07 18:49 | 18.09566 | -64.12204 | 17982 ft | 199 kts | 107° |
| 2026-05-07 18:49 | 18.09088 | -64.10851 | 17650 ft | 197 kts | 107° |
| 2026-05-07 18:49 | 18.08607 | -64.09485 | 17317 ft | 199 kts | 107° |
| 2026-05-07 18:50 | 18.08124 | -64.08116 | 16996 ft | 202 kts | 107° |
| 2026-05-07 18:50 | 18.07632 | -64.06726 | 16677 ft | 205 kts | 107° |
| 2026-05-07 18:50 | 18.07146 | -64.05357 | 16358 ft | 198 kts | 107° |
| 2026-05-07 18:50 | 18.06672 | -64.04027 | 16036 ft | 192 kts | 107° |
| 2026-05-07 18:51 | 18.06205 | -64.02702 | 15730 ft | 195 kts | 107° |
| 2026-05-07 18:51 | 18.05732 | -64.01359 | 15422 ft | 195 kts | 107° |
| 2026-05-07 18:51 | 18.05256 | -64.00019 | 15116 ft | 196 kts | 107° |
| 2026-05-07 18:51 | 18.04779 | -63.98672 | 14823 ft | 198 kts | 108° |
| 2026-05-07 18:52 | 18.04299 | -63.97317 | 14521 ft | 196 kts | 108° |
| 2026-05-07 18:52 | 18.03831 | -63.96005 | 14218 ft | 188 kts | 108° |
| 2026-05-07 18:52 | 18.03380 | -63.94735 | 13920 ft | 183 kts | 107° |
| 2026-05-07 18:52 | 18.02939 | -63.93491 | 13600 ft | 180 kts | 107° |
| 2026-05-07 18:53 | 18.02498 | -63.92239 | 13270 ft | 188 kts | 108° |
| 2026-05-07 18:53 | 18.02033 | -63.90921 | 12951 ft | 195 kts | 108° |
| 2026-05-07 18:53 | 18.01556 | -63.89584 | 12627 ft | 196 kts | 108° |
| 2026-05-07 18:53 | 18.01075 | -63.88234 | 12306 ft | 195 kts | 108° |
| 2026-05-07 18:54 | 18.00609 | -63.86925 | 11989 ft | 191 kts | 108° |
| 2026-05-07 18:54 | 18.00149 | -63.85630 | 11678 ft | 187 kts | 108° |
| 2026-05-07 18:54 | 17.99691 | -63.84339 | 11366 ft | 190 kts | 108° |
| 2026-05-07 18:54 | 17.99228 | -63.83033 | 11064 ft | 192 kts | 109° |
| 2026-05-07 18:55 | 17.98761 | -63.81720 | 10760 ft | 193 kts | 108° |
| 2026-05-07 18:55 | 17.98304 | -63.80393 | 10459 ft | 192 kts | 101° |
| 2026-05-07 18:55 | 17.98307 | -63.79023 | 10169 ft | 187 kts | 79° |
| 2026-05-07 18:55 | 17.98502 | -63.77677 | 9873 ft | 187 kts | 78° |
| 2026-05-07 18:56 | 17.98690 | -63.76204 | 9548 ft | 221 kts | 81° |
| 2026-05-07 18:56 | 17.98814 | -63.74496 | 9229 ft | 246 kts | 85° |
| 2026-05-07 18:56 | 17.98902 | -63.72640 | 8909 ft | 260 kts | 86° |
| 2026-05-07 18:56 | 17.99000 | -63.70723 | 8593 ft | 266 kts | 85° |
| 2026-05-07 18:57 | 17.99116 | -63.68767 | 8273 ft | 267 kts | 85° |
| 2026-05-07 18:57 | 17.99234 | -63.66843 | 7957 ft | 267 kts | 84° |
| 2026-05-07 18:57 | 17.99342 | -63.64899 | 7649 ft | 266 kts | 85° |
| 2026-05-07 18:57 | 17.99461 | -63.62978 | 7351 ft | 260 kts | 85° |
| 2026-05-07 18:58 | 17.99578 | -63.61111 | 7071 ft | 254 kts | 85° |
| 2026-05-07 18:58 | 17.99687 | -63.59263 | 6782 ft | 251 kts | 85° |
| 2026-05-07 18:58 | 17.99792 | -63.57452 | 6509 ft | 248 kts | 85° |
| 2026-05-07 18:58 | 17.99898 | -63.55645 | 6237 ft | 246 kts | 85° |
| 2026-05-07 18:59 | 17.99998 | -63.53968 | 5983 ft | 244 kts | 85° |
| 2026-05-07 18:59 | 18.00102 | -63.52192 | 5711 ft | 242 kts | 85° |
| 2026-05-07 18:59 | 18.00204 | -63.50453 | 5448 ft | 241 kts | 85° |
| 2026-05-07 18:59 | 18.00308 | -63.48678 | 5150 ft | 241 kts | 86° |
| 2026-05-07 19:00 | 18.00410 | -63.46939 | 4874 ft | 240 kts | 86° |
| 2026-05-07 19:00 | 18.00512 | -63.45191 | 4568 ft | 240 kts | 86° |
| 2026-05-07 19:00 | 18.00614 | -63.43433 | 4245 ft | 241 kts | 86° |
| 2026-05-07 19:00 | 18.00716 | -63.41682 | 3933 ft | 240 kts | 86° |
| 2026-05-07 19:01 | 18.00818 | -63.39928 | 3617 ft | 240 kts | 86° |
| 2026-05-07 19:01 | 18.00920 | -63.38180 | 3367 ft | 237 kts | 86° |
| 2026-05-07 19:01 | 18.01019 | -63.36472 | 3199 ft | 233 kts | 86° |
| 2026-05-07 19:01 | 18.01117 | -63.34786 | 3026 ft | 230 kts | 86° |
| 2026-05-07 19:02 | 18.01214 | -63.33111 | 2832 ft | 229 kts | 86° |
| 2026-05-07 19:02 | 18.01311 | -63.31440 | 2638 ft | 228 kts | 86° |
| 2026-05-07 19:02 | 18.01401 | -63.29848 | 2581 ft | 212 kts | 86° |
| 2026-05-07 19:02 | 18.01588 | -63.28378 | 2580 ft | 196 kts | 81° |
| 2026-05-07 19:03 | 18.01793 | -63.26997 | 2541 ft | 188 kts | 82° |
| 2026-05-07 19:03 | 18.01987 | -63.25626 | 2396 ft | 194 kts | 82° |
| 2026-05-07 19:03 | 18.02191 | -63.24196 | 2254 ft | 202 kts | 81° |
| 2026-05-07 19:03 | 18.02401 | -63.22736 | 2112 ft | 200 kts | 81° |
| 2026-05-07 19:04 | 18.02592 | -63.21385 | 1936 ft | 175 kts | 81° |
| 2026-05-07 19:04 | 18.02761 | -63.20200 | 1757 ft | 150 kts | 81° |
| 2026-05-07 19:04 | 18.02898 | -63.19226 | 1545 ft | 122 kts | 81° |
| 2026-05-07 19:04 | 18.03023 | -63.18381 | 1382 ft | 118 kts | 79° |
| 2026-05-07 19:05 | 18.03156 | -63.17543 | 1231 ft | 113 kts | 80° |
| 2026-05-07 19:05 | 18.03269 | -63.16740 | 976 ft | 109 kts | 81° |
| 2026-05-07 19:05 | 18.03362 | -63.16008 | 793 ft | 95 kts | 81° |
| 2026-05-07 19:05 | 18.03463 | -63.15328 | 647 ft | 94 kts | 82° |
| 2026-05-07 19:06 | 18.03574 | -63.14655 | 560 ft | 92 kts | 81° |
| 2026-05-07 19:06 | 18.03744 | -63.13383 | 356 ft | 84 kts | 84° |
| 2026-05-07 19:06 | 18.03820 | -63.12779 | 236 ft | 82 kts | 84° |
| 2026-05-07 19:07 | 18.03914 | -63.12201 | 128 ft | 79 kts | 83° |
| 2026-05-07 19:07 | 18.03987 | -63.11676 | 25 ft | 62 kts | 85° |
| 2026-05-07 19:07 | 18.04033 | -63.11305 | 24 ft | 42 kts | 83° |
| 2026-05-07 19:07 | 18.04074 | -63.11166 | 24 ft | 13 kts | 32° |
| 2026-05-07 19:08 | 18.04123 | -63.11162 | 26 ft | 2 kts | 343° |
| 2026-05-07 19:08 | 18.04135 | -63.11165 | 24 ft | 0 kts | 347° |
| 2026-05-07 19:09 | 18.04137 | -63.11166 | 24 ft | 2 kts | 347° |
| 2026-05-07 19:09 | 18.04158 | -63.11120 | 25 ft | 9 kts | 75° |
| 2026-05-07 19:09 | 18.04197 | -63.11104 | 25 ft | 11 kts | 353° |
| 2026-05-07 19:09 | 18.04209 | -63.11150 | 25 ft | 12 kts | 179° |
| 2026-05-07 19:10 | 18.04192 | -63.11147 | 27 ft | 2 kts | 171° |
| 2026-05-07 19:10 | 18.04189 | -63.11146 | 26 ft | 0 kts | 171° |